Time;durP1;ratioP1;P1;durP2;ratioP2;P2;SDS_P1;SDS_P2;PMS_P1;PMS_P2;Temp;Humidity;BMP_temperature;BMP_pressure;BME280_temperature;BME280_humidity;BME280_pressure;Samples;Min_cycle;Max_cycle;Signal;HPM_P1;HPM_P2
2022/06/10 00:00:31;;;;;;;22.52;12.35;;;18.80;99.90;;;;;;5054769;28;20096;-80
2022/06/10 00:02:57;;;;;;;20.73;12.75;;;18.80;99.90;;;;;;5053707;28;20025;-78
2022/06/10 00:05:25;;;;;;;14.98;11.63;;;18.80;99.90;;;;;;5053809;28;20024;-80
2022/06/10 00:07:52;;;;;;;13.95;11.57;;;18.80;99.90;;;;;;5054888;28;20392;-78
2022/06/10 00:10:22;;;;;;;21.92;13.65;;;18.80;99.90;;;;;;5054775;28;20044;-79
2022/06/10 00:12:48;;;;;;;21.13;13.48;;;18.80;99.90;;;;;;5053263;28;20021;-80
2022/06/10 00:15:15;;;;;;;18.10;12.48;;;18.90;99.90;;;;;;5054494;28;20025;-79
2022/06/10 00:17:42;;;;;;;16.30;12.50;;;18.90;99.90;;;;;;5053242;28;20025;-80
2022/06/10 00:20:10;;;;;;;16.73;12.60;;;18.90;99.90;;;;;;5054133;28;20104;-78
2022/06/10 00:22:36;;;;;;;16.95;12.48;;;19.00;99.90;;;;;;5053392;28;20032;-79
2022/06/10 00:25:02;;;;;;;21.10;13.15;;;19.00;99.90;;;;;;5054358;28;20025;-79
2022/06/10 00:27:28;;;;;;;18.15;12.57;;;19.00;99.90;;;;;;5054227;28;20359;-79
2022/06/10 00:29:54;;;;;;;16.42;11.77;;;19.00;99.90;;;;;;5054285;28;20029;-79
2022/06/10 00:32:19;;;;;;;24.85;14.07;;;19.00;99.90;;;;;;5054484;28;20146;-79
2022/06/10 00:34:45;;;;;;;18.45;12.77;;;19.00;99.90;;;;;;5053312;28;20023;-79
2022/06/10 00:37:11;;;;;;;18.58;13.23;;;19.00;99.90;;;;;;5054115;28;20447;-79
2022/06/10 00:39:37;;;;;;;18.00;13.35;;;19.00;99.90;;;;;;5054374;28;20020;-79
2022/06/10 00:42:05;;;;;;;18.45;13.65;;;19.00;99.90;;;;;;5054320;28;20025;-79
2022/06/10 00:44:44;;;;;;;23.83;14.50;;;19.00;99.90;;;;;;5053060;28;20056;-79
2022/06/10 00:47:23;;;;;;;26.05;13.88;;;19.10;99.90;;;;;;5054230;28;20079;-80
2022/06/10 00:50:01;;;;;;;24.15;13.63;;;19.10;99.90;;;;;;5054222;28;20074;-79
2022/06/10 00:52:35;;;;;;;19.35;13.30;;;19.10;99.90;;;;;;5054078;28;20033;-78
2022/06/10 00:55:04;;;;;;;19.92;14.13;;;19.10;99.90;;;;;;5053808;28;20024;-79
2022/06/10 00:57:40;;;;;;;19.80;13.98;;;19.10;99.90;;;;;;5054033;28;20028;-79
2022/06/10 01:00:12;;;;;;;20.73;13.40;;;19.20;99.90;;;;;;5054140;28;20053;-81
2022/06/10 01:02:39;;;;;;;21.42;13.85;;;19.10;99.90;;;;;;5053790;28;20454;-80
2022/06/10 01:05:16;;;;;;;20.50;14.02;;;19.20;99.90;;;;;;5053821;28;20452;-79
2022/06/10 01:07:59;;;;;;;20.55;13.70;;;19.20;99.90;;;;;;5052732;28;20048;-79
2022/06/10 01:10:25;;;;;;;18.05;13.93;;;19.20;99.90;;;;;;5053820;28;20071;-79
2022/06/10 01:13:06;;;;;;;22.10;13.40;;;19.20;99.90;;;;;;5053493;28;20414;-80
2022/06/10 01:15:50;;;;;;;26.27;13.75;;;19.20;99.90;;;;;;5052270;28;20111;-79
2022/06/10 01:18:39;;;;;;;23.13;14.40;;;19.20;99.90;;;;;;5053499;28;20048;-80
2022/06/10 01:21:55;;;;;;;20.40;14.07;;;19.20;99.90;;;;;;5053422;28;20025;-79
2022/06/10 01:24:39;;;;;;;18.42;14.13;;;19.20;99.90;;;;;;5051697;28;20057;-79
2022/06/10 01:30:01;;;;;;;20.17;14.85;;;19.20;99.90;;;;;;5053127;28;20122;-79
2022/06/10 01:32:44;;;;;;;20.48;13.88;;;19.20;99.90;;;;;;5053962;28;20036;-79
2022/06/10 01:35:24;;;;;;;22.77;14.07;;;19.20;99.90;;;;;;5052747;28;20048;-79
2022/06/10 01:38:17;;;;;;;21.45;14.75;;;19.20;99.90;;;;;;5053060;28;20020;-79
2022/06/10 01:41:11;;;;;;;20.80;14.05;;;19.30;99.90;;;;;;5053690;28;20025;-78
2022/06/10 01:43:52;;;;;;;22.63;13.50;;;19.30;99.90;;;;;;5053641;28;20025;-79
2022/06/10 01:46:25;;;;;;;18.85;13.75;;;19.30;99.90;;;;;;5052360;28;20028;-79
2022/06/10 01:49:13;;;;;;;20.00;14.07;;;19.30;99.90;;;;;;5053762;28;20024;-79
2022/06/10 01:51:53;;;;;;;15.60;14.00;;;19.30;99.90;;;;;;5051956;28;20064;-79
2022/06/10 01:54:44;;;;;;;24.80;15.50;;;19.30;99.90;;;;;;5052252;28;20020;-79
2022/06/10 01:57:17;;;;;;;20.70;14.43;;;19.20;99.90;;;;;;5052856;28;20028;-79
2022/06/10 01:59:53;;;;;;;21.60;14.35;;;19.30;99.90;;;;;;5053496;28;20025;-79
2022/06/10 02:02:25;;;;;;;18.25;14.65;;;19.30;99.90;;;;;;5053750;28;20535;-80
2022/06/10 02:04:53;;;;;;;;;;;19.30;99.90;;;;;;5053560;28;20017;-79
2022/06/10 02:07:35;;;;;;;17.98;13.75;;;19.30;99.90;;;;;;5053326;28;19988;-80
2022/06/10 02:10:28;;;;;;;19.17;14.32;;;19.30;99.90;;;;;;5052183;28;20025;-79
2022/06/10 02:13:01;;;;;;;22.73;14.57;;;19.30;99.90;;;;;;5052740;28;20080;-79
2022/06/10 02:15:33;;;;;;;23.42;14.65;;;19.30;99.90;;;;;;5052995;28;20020;-79
2022/06/10 02:18:08;;;;;;;19.85;14.00;;;19.40;99.90;;;;;;5052692;28;20041;-80
2022/06/10 02:20:37;;;;;;;26.80;15.18;;;19.40;99.90;;;;;;5053059;28;20383;-80
2022/06/10 02:23:05;;;;;;;16.58;14.80;;;19.40;99.90;;;;;;5053043;28;20108;-79
2022/06/10 02:25:40;;;;;;;19.30;14.73;;;19.40;99.90;;;;;;5052649;28;20075;-81
2022/06/10 02:28:11;;;;;;;18.98;14.93;;;19.40;99.90;;;;;;5052461;28;20375;-78
2022/06/10 02:31:11;;;;;;;22.20;14.35;;;19.40;99.90;;;;;;5056725;28;20029;-78
2022/06/10 02:33:38;;;;;;;20.13;14.40;;;19.40;99.90;;;;;;5056537;28;20112;-78
2022/06/10 02:36:09;;;;;;;18.38;14.57;;;19.40;99.90;;;;;;5056428;28;20032;-80
2022/06/10 02:38:50;;;;;;;22.92;14.10;;;19.40;99.90;;;;;;5056295;28;20410;-80
2022/06/10 02:41:19;;;;;;;20.83;14.57;;;19.40;99.90;;;;;;5056293;28;20021;-79
2022/06/10 02:43:56;;;;;;;19.65;14.32;;;19.50;99.90;;;;;;5056558;28;20258;-80
2022/06/10 02:46:31;;;;;;;23.77;14.90;;;19.50;99.90;;;;;;5055891;28;20024;-78
2022/06/10 02:49:00;;;;;;;18.00;15.05;;;19.50;99.90;;;;;;5056477;28;20028;-79
2022/06/10 02:51:28;;;;;;;19.15;14.57;;;19.50;99.90;;;;;;5055107;28;20033;-79
2022/06/10 02:53:54;;;;;;;21.42;15.10;;;19.50;99.90;;;;;;5055768;28;20028;-79
2022/06/10 02:56:25;;;;;;;19.80;15.10;;;19.50;99.90;;;;;;5056031;28;20021;-80
2022/06/10 03:02:15;;;;;;;20.90;15.38;;;19.50;99.90;;;;;;5055904;28;20028;-79
2022/06/10 03:04:50;;;;;;;20.42;15.18;;;19.50;99.90;;;;;;5056172;28;20090;-78
2022/06/10 03:07:32;;;;;;;20.98;15.05;;;19.50;99.90;;;;;;5055558;28;20049;-79
2022/06/10 03:10:10;;;;;;;;;;;19.60;99.90;;;;;;5056518;28;20021;-79
2022/06/10 03:13:04;;;;;;;21.60;15.20;;;19.60;99.90;;;;;;5055965;28;20355;-79
2022/06/10 03:16:07;;;;;;;21.83;15.45;;;19.50;99.90;;;;;;5053525;28;20029;-80
2022/06/10 03:18:35;;;;;;;20.50;14.70;;;19.50;99.90;;;;;;5055823;28;20049;-79
2022/06/10 03:21:44;;;;;;;23.67;14.68;;;19.50;99.90;;;;;;5055499;28;20032;-80
2022/06/10 03:24:45;;;;;;;23.52;15.18;;;19.50;99.90;;;;;;5033301;28;20475;-79
2022/06/10 03:27:22;;;;;;;23.00;16.77;;;19.60;99.90;;;;;;5049976;28;20040;-79
2022/06/10 03:30:19;;;;;;;23.27;15.70;;;19.60;99.90;;;;;;5033106;28;20419;-78
2022/06/10 03:33:15;;;;;;;22.45;17.05;;;19.60;99.90;;;;;;5032259;28;20046;-79
2022/06/10 03:35:49;;;;;;;21.20;17.40;;;19.60;99.90;;;;;;5032945;28;20143;-80
2022/06/10 03:38:15;;;;;;;21.83;17.60;;;19.60;99.90;;;;;;5016828;28;20025;-79
2022/06/10 03:40:42;;;;;;;24.80;18.33;;;19.70;99.90;;;;;;5032973;28;20037;-79
2022/06/10 03:43:12;;;;;;;22.67;18.02;;;19.70;99.90;;;;;;5032809;28;20104;-80
2022/06/10 03:45:44;;;;;;;24.23;19.60;;;19.70;99.90;;;;;;5033063;28;20045;-79
2022/06/10 03:48:16;;;;;;;23.08;19.45;;;19.80;99.90;;;;;;5033047;28;20479;-79
2022/06/10 03:50:43;;;;;;;22.85;19.40;;;19.80;99.90;;;;;;5016330;28;20029;-79
2022/06/10 03:53:15;;;;;;;25.90;19.15;;;19.90;99.90;;;;;;5032944;28;20034;-79
2022/06/10 03:55:41;;;;;;;27.48;20.80;;;19.80;99.90;;;;;;5033015;28;20022;-79
2022/06/10 03:58:07;;;;;;;26.23;20.75;;;19.80;99.90;;;;;;5015859;28;20558;-80
2022/06/10 04:00:33;;;;;;;23.27;19.48;;;19.90;99.90;;;;;;5052962;28;20036;-80
2022/06/10 04:02:59;;;;;;;25.48;19.48;;;19.80;99.90;;;;;;5054827;28;20017;-78
2022/06/10 04:05:24;;;;;;;27.65;18.02;;;19.80;99.90;;;;;;5054977;28;20025;-79
2022/06/10 04:07:50;;;;;;;20.33;18.17;;;19.80;99.90;;;;;;5054979;28;20452;-79
2022/06/10 04:10:21;;;;;;;27.00;18.13;;;19.80;99.90;;;;;;5054560;28;20031;-80
2022/06/10 04:12:46;;;;;;;23.27;18.30;;;19.90;99.90;;;;;;5054985;28;20074;-79
2022/06/10 04:15:16;;;;;;;23.75;18.48;;;19.90;99.90;;;;;;5054583;28;20028;-79
2022/06/10 04:17:49;;;;;;;24.38;18.48;;;19.80;99.90;;;;;;5054230;28;20032;-79
2022/06/10 04:20:19;;;;;;;25.38;19.15;;;19.90;99.90;;;;;;5054768;28;20025;-78
2022/06/10 04:22:45;;;;;;;27.92;20.58;;;19.90;99.90;;;;;;5053398;28;20162;-79
2022/06/10 04:25:11;;;;;;;26.85;20.55;;;19.90;99.90;;;;;;5053986;28;20479;-79
2022/06/10 04:27:37;;;;;;;30.55;19.48;;;19.90;99.90;;;;;;5054348;28;20028;-80
2022/06/10 04:30:05;;;;;;;29.20;20.48;;;19.90;99.90;;;;;;5054459;28;20070;-79
2022/06/10 04:32:31;;;;;;;25.98;20.42;;;19.90;99.90;;;;;;5054509;28;20108;-79
2022/06/10 04:34:56;;;;;;;27.33;20.58;;;20.00;99.90;;;;;;5054601;28;20411;-79
2022/06/10 04:37:23;;;;;;;33.30;21.45;;;20.00;99.90;;;;;;5054643;28;20017;-79
2022/06/10 04:39:49;;;;;;;33.38;22.85;;;20.00;99.90;;;;;;5053792;28;20036;-78
2022/06/10 04:42:15;;;;;;;25.77;19.10;;;20.00;99.90;;;;;;5054304;28;20021;-80
2022/06/10 04:44:41;;;;;;;23.75;18.80;;;20.10;99.90;;;;;;5053043;28;20021;-80
2022/06/10 04:47:07;;;;;;;25.85;17.08;;;20.10;99.90;;;;;;5053947;28;20515;-79
2022/06/10 04:49:35;;;;;;;24.10;17.45;;;20.20;99.90;;;;;;5052914;28;20363;-81
2022/06/10 04:52:01;;;;;;;21.88;16.75;;;20.30;99.90;;;;;;5052116;28;20067;-80
2022/06/10 04:54:27;;;;;;;21.85;15.75;;;20.40;99.90;;;;;;5052809;28;20027;-79
2022/06/10 04:56:53;;;;;;;25.15;16.60;;;20.50;99.90;;;;;;5054158;28;20096;-78
2022/06/10 04:59:18;;;;;;;22.05;16.35;;;20.60;99.90;;;;;;5053723;28;20028;-79
2022/06/10 05:01:44;;;;;;;22.63;17.23;;;20.60;99.90;;;;;;5054215;28;20082;-78
2022/06/10 05:04:10;;;;;;;22.17;17.20;;;20.50;99.90;;;;;;5053775;28;20021;-78
2022/06/10 05:06:36;;;;;;;21.00;17.05;;;20.50;99.90;;;;;;5053888;28;20029;-78
2022/06/10 05:09:01;;;;;;;25.77;17.60;;;20.40;99.90;;;;;;5054125;28;20033;-78
2022/06/10 05:11:27;;;;;;;29.50;19.48;;;20.50;99.90;;;;;;5053938;28;20079;-79
2022/06/10 05:13:53;;;;;;;20.05;16.92;;;20.50;99.90;;;;;;5053670;28;20025;-78
2022/06/10 05:16:19;;;;;;;21.80;17.52;;;20.60;99.90;;;;;;5052558;28;20179;-78
2022/06/10 05:18:45;;;;;;;22.67;18.02;;;20.60;99.90;;;;;;5053651;28;20049;-77
2022/06/10 05:21:10;;;;;;;24.30;18.33;;;20.60;99.90;;;;;;5053229;28;20415;-80
2022/06/10 05:23:37;;;;;;;26.77;18.63;;;20.60;99.90;;;;;;5052701;28;20070;-79
2022/06/10 05:26:02;;;;;;;24.75;19.17;;;20.60;99.90;;;;;;5054041;28;20463;-78
2022/06/10 05:28:28;;;;;;;27.20;20.15;;;20.40;99.90;;;;;;5053392;28;20021;-78
2022/06/10 05:30:54;;;;;;;30.45;20.20;;;20.40;99.90;;;;;;5053607;28;20029;-77
2022/06/10 05:33:20;;;;;;;28.27;21.52;;;20.30;99.90;;;;;;5052579;28;20029;-79
2022/06/10 05:35:46;;;;;;;26.88;20.30;;;20.30;99.90;;;;;;5051383;28;20017;-78
2022/06/10 05:38:13;;;;;;;28.67;22.17;;;20.30;99.90;;;;;;5053470;28;20060;-77
2022/06/10 05:40:39;;;;;;;29.55;21.88;;;20.40;99.90;;;;;;5052355;28;20456;-79
2022/06/10 05:43:05;;;;;;;30.02;21.90;;;20.50;99.90;;;;;;5053293;28;20031;-77
2022/06/10 05:45:31;;;;;;;30.48;22.08;;;20.50;99.90;;;;;;5053680;28;20395;-78
2022/06/10 05:48:00;;;;;;;32.45;21.92;;;20.50;99.90;;;;;;5052952;28;20025;-78
2022/06/10 05:50:39;;;;;;;29.75;22.70;;;20.60;99.90;;;;;;5052236;28;20033;-77
2022/06/10 05:53:07;;;;;;;28.08;22.50;;;20.60;99.90;;;;;;5052094;28;20028;-78
2022/06/10 05:55:34;;;;;;;32.75;23.33;;;20.60;99.90;;;;;;5051940;28;20105;-78
2022/06/10 05:58:00;;;;;;;28.05;22.13;;;20.60;99.90;;;;;;5052315;28;20028;-78
2022/06/10 06:00:28;;;;;;;33.63;22.15;;;20.60;99.90;;;;;;5053479;28;20025;-78
2022/06/10 06:02:54;;;;;;;29.60;22.33;;;20.60;99.90;;;;;;5053288;28;20017;-77
2022/06/10 06:05:21;;;;;;;35.35;21.90;;;20.60;99.90;;;;;;5057003;28;20420;-80
2022/06/10 06:07:48;;;;;;;34.63;22.30;;;20.70;99.90;;;;;;5057311;28;20108;-81
2022/06/10 06:10:17;;;;;;;24.85;20.95;;;20.70;99.90;;;;;;5056782;28;20107;-82
2022/06/10 06:12:44;;;;;;;29.05;19.92;;;20.70;99.90;;;;;;5057454;28;20158;-77
2022/06/10 06:15:11;;;;;;;24.02;18.35;;;20.70;99.90;;;;;;5056710;28;20021;-79
2022/06/10 06:17:37;;;;;;;24.08;18.35;;;20.70;99.90;;;;;;5056282;28;20078;-79
2022/06/10 06:20:04;;;;;;;24.48;18.90;;;20.80;99.90;;;;;;5056807;28;20025;-79
2022/06/10 06:22:30;;;;;;;24.70;19.08;;;20.90;99.90;;;;;;5056963;28;20029;-79
2022/06/10 06:24:56;;;;;;;21.10;17.85;;;21.20;99.90;;;;;;5056601;28;20077;-78
2022/06/10 06:27:22;;;;;;;22.40;17.85;;;21.50;99.90;;;;;;5056452;28;20104;-80
2022/06/10 06:29:47;;;;;;;23.52;17.50;;;21.70;99.90;;;;;;5056960;28;20079;-79
2022/06/10 06:32:13;;;;;;;29.70;17.63;;;21.80;99.90;;;;;;5056090;28;20029;-78
2022/06/10 06:34:40;;;;;;;26.35;17.52;;;22.00;99.90;;;;;;5056707;28;20501;-76
2022/06/10 06:37:09;;;;;;;19.17;15.63;;;22.10;99.90;;;;;;5056003;28;20020;-75
2022/06/10 06:39:35;;;;;;;17.55;13.98;;;22.20;99.90;;;;;;5056615;28;20017;-77
2022/06/10 06:42:02;;;;;;;22.88;17.13;;;22.10;99.90;;;;;;5056214;28;20021;-76
2022/06/10 06:44:28;;;;;;;20.23;15.65;;;22.20;99.90;;;;;;5055914;28;20025;-75
2022/06/10 06:46:54;;;;;;;18.17;15.13;;;22.30;99.90;;;;;;5056167;28;20494;-75
2022/06/10 06:49:24;;;;;;;19.90;15.85;;;22.40;99.90;;;;;;5056175;28;20364;-76
2022/06/10 06:51:50;;;;;;;22.67;14.90;;;22.50;99.90;;;;;;5055851;28;20029;-75
2022/06/10 06:54:17;;;;;;;18.40;15.30;;;22.40;99.90;;;;;;5056079;28;20028;-75
2022/06/10 06:56:43;;;;;;;18.30;14.57;;;22.50;99.90;;;;;;5056549;28;20108;-75
2022/06/10 06:59:09;;;;;;;20.52;14.93;;;22.50;99.90;;;;;;5055620;28;20072;-75
2022/06/10 07:01:35;;;;;;;21.05;16.23;;;22.40;99.90;;;;;;5055975;28;20020;-76
2022/06/10 07:04:04;;;;;;;19.02;14.60;;;22.30;99.90;;;;;;5056501;28;20060;-76
2022/06/10 07:06:31;;;;;;;20.30;14.40;;;22.40;99.90;;;;;;5055773;28;20021;-76
2022/06/10 07:08:57;;;;;;;19.08;14.18;;;22.50;99.90;;;;;;5055147;28;20053;-76
2022/06/10 07:11:23;;;;;;;16.33;13.13;;;;;;;;;;5054422;28;20025;-77
2022/06/10 07:13:49;;;;;;;19.33;14.88;;;22.70;99.90;;;;;;5055275;28;20021;-77
2022/06/10 07:16:15;;;;;;;17.30;12.80;;;23.10;99.90;;;;;;5056059;28;20074;-78
2022/06/10 07:18:42;;;;;;;16.92;13.35;;;;;;;;;;5055901;28;20037;-75
2022/06/10 07:21:08;;;;;;;15.48;11.88;;;;;;;;;;5055604;28;20021;-77
2022/06/10 07:23:35;;;;;;;14.43;12.02;;;;;;;;;;5055543;28;20445;-76
2022/06/10 07:26:03;;;;;;;15.68;11.80;;;;;;;;;;5054917;28;20013;-75
2022/06/10 07:28:29;;;;;;;14.00;12.23;;;;;;;;;;5054397;28;20070;-75
2022/06/10 07:30:56;;;;;;;17.92;11.40;;;;;;;;;;5055504;28;20039;-76
2022/06/10 07:33:22;;;;;;;13.90;10.77;;;;;;;;;;5054068;28;20025;-76
2022/06/10 07:35:48;;;;;;;13.57;11.98;;;;;;;;;;5055486;28;20463;-76
2022/06/10 07:38:14;;;;;;;12.98;10.13;;;;;;;;;;5054301;28;20344;-76
2022/06/10 07:43:27;;;;;;;17.30;10.93;;;;;;;;;;5055499;28;20079;-76
2022/06/10 07:45:54;;;;;;;14.50;11.50;;;;;;;;;;5055422;28;20020;-77
2022/06/10 07:48:21;;;;;;;16.08;11.75;;;;;;;;;;5054774;28;20043;-74
2022/06/10 07:50:47;;;;;;;13.00;11.18;;;;;;;;;;5055477;28;20052;-75
2022/06/10 07:53:14;;;;;;;19.55;11.38;;;;;;;;;;5055273;28;20025;-76
2022/06/10 07:55:41;;;;;;;15.05;11.30;;;;;;;;;;5055197;28;20029;-74
2022/06/10 07:58:07;;;;;;;13.85;11.18;;;;;;;;;;5055198;28;20025;-73
2022/06/10 08:00:34;;;;;;;16.02;10.38;;;;;;;;;;5054895;28;20340;-75
2022/06/10 08:03:01;;;;;;;12.73;10.57;;;;;;;;;;5054478;28;20448;-79
2022/06/10 08:05:27;;;;;;;16.27;10.80;;;;;;;;;;5054757;28;20021;-77
2022/06/10 08:07:53;;;;;;;13.57;10.30;;;;;;;;;;5054617;28;20469;-77
2022/06/10 08:10:22;;;;;;;14.73;10.40;;;;;;;;;;5055149;28;20031;-77
2022/06/10 08:12:49;;;;;;;14.73;9.65;;;;;;;;;;5054861;28;20063;-78
2022/06/10 08:15:16;;;;;;;14.70;9.77;;;;;;;;;;5054238;28;20021;-76
2022/06/10 08:17:43;;;;;;;11.52;9.75;;;;;;;;;;5054609;28;20044;-77
2022/06/10 08:20:15;;;;;;;12.95;10.30;;;;;;;;;;5054763;28;20108;-76
2022/06/10 08:22:41;;;;;;;;;;;;;;;;;;5054824;28;20023;-77
2022/06/10 08:25:09;;;;;;;20.23;9.75;;;;;;;;;;5054202;28;19912;-76
2022/06/10 08:27:35;;;;;;;10.15;9.15;;;;;;;;;;5054474;28;20440;-76
2022/06/10 08:30:03;;;;;;;11.35;9.27;;;;;;;;;;5053916;28;20367;-77
2022/06/10 08:32:30;;;;;;;12.65;8.98;;;;;;;;;;5054197;28;20042;-77
2022/06/10 08:34:56;;;;;;;13.45;9.70;;;;;;;;;;5053987;28;20021;-77
2022/06/10 08:37:22;;;;;;;13.55;9.48;;;;;;;;;;5053385;28;20470;-77
2022/06/10 08:39:48;;;;;;;13.55;9.40;;;;;;;;;;5051697;28;20049;-77
2022/06/10 08:42:17;;;;;;;12.52;8.38;;;;;;;;;;5052997;28;20029;-75
2022/06/10 08:44:54;;;;;;;9.95;8.77;;;;;;;;;;5053767;28;20036;-75
2022/06/10 08:47:30;;;;;;;8.50;7.20;;;;;;;;;;5053007;28;20041;-75
2022/06/10 08:49:56;;;;;;;11.02;8.63;;;;;;;;;;5053942;28;20027;-77
2022/06/10 08:52:23;;;;;;;9.73;8.82;;;;;;;;;;5054232;28;20020;-75
2022/06/10 08:54:59;;;;;;;10.15;7.53;;;;;;;;;;5054173;28;20071;-74
2022/06/10 08:57:38;;;;;;;15.80;8.15;;;;;;;;;;5053739;28;20017;-75
2022/06/10 09:00:12;;;;;;;11.80;8.68;;;;;;;;;;5053850;28;20109;-75
2022/06/10 09:02:42;;;;;;;11.90;10.20;;;;;;;;;;5053816;28;20139;-75
2022/06/10 09:05:08;;;;;;;16.20;10.23;;;;;;;;;;5052622;28;20024;-76
2022/06/10 09:07:46;;;;;;;9.43;8.52;;;;;;;;;;5053310;28;20013;-75
2022/06/10 09:10:21;;;;;;;17.77;10.10;;;;;;;;;;5052918;28;20021;-76
2022/06/10 09:12:50;;;;;;;10.15;9.13;;;;;;;;;;5053004;28;20348;-76
2022/06/10 09:15:18;;;;;;;21.42;9.75;;;;;;;;;;5053757;28;20021;-75
2022/06/10 09:17:50;;;;;;;10.90;9.05;;;;;;;;;;5053480;28;20459;-74
2022/06/10 09:20:24;;;;;;;16.80;9.70;;;;;;;;;;5053003;28;20027;-78
2022/06/10 09:22:57;;;;;;;15.38;10.00;;;;;;;;;;5053509;28;20009;-74
2022/06/10 09:25:32;;;;;;;13.23;11.02;;;;;;;;;;5053361;28;20074;-75
2022/06/10 09:28:00;;;;;;;15.13;10.98;;;;;;;;;;5053855;28;20099;-74
2022/06/10 09:30:30;;;;;;;15.00;11.30;;;;;;;;;;5053500;28;20024;-73
2022/06/10 09:33:00;;;;;;;69.05;23.90;;;;;;;;;;5053438;28;20032;-74
2022/06/10 09:35:35;;;;;;;13.15;9.38;;;;;;;;;;5053531;28;20021;-73
2022/06/10 09:38:16;;;;;;;21.27;11.55;;;;;;;;;;5055383;28;20040;-74
2022/06/10 09:40:57;;;;;;;11.38;10.30;;;;;;;;;;5057248;28;20021;-74
2022/06/10 09:43:23;;;;;;;15.63;10.20;;;;;;;;;;5057649;28;20017;-73
2022/06/10 09:46:10;;;;;;;12.10;10.90;;;;;;;;;;5057242;28;20152;-75
2022/06/10 09:48:48;;;;;;;12.15;10.77;;;;;;;;;;5056473;28;20359;-75
2022/06/10 09:51:17;;;;;;;14.77;12.52;;;;;;;;;;5057134;28;20471;-75
2022/06/10 09:54:06;;;;;;;14.90;9.93;;;;;;;;;;5057074;28;20017;-75
2022/06/10 09:57:08;;;;;;;13.13;9.45;;;;;;;;;;5056050;28;20501;-74
2022/06/10 09:59:43;;;;;;;13.65;9.07;;;;;;;;;;5015441;28;20125;-75
2022/06/10 10:02:34;;;;;;;13.73;9.20;;;;;;;;;;5014760;28;20177;-75
2022/06/10 10:05:01;;;;;;;12.57;9.57;;;;;;;;;;5015314;28;20017;-73
2022/06/10 10:07:27;;;;;;;15.20;8.95;;;;;;;;;;5014692;28;20637;-76
2022/06/10 10:09:53;;;;;;;12.23;9.38;;;;;;;;;;5014981;28;20029;-75
2022/06/10 10:12:31;;;;;;;13.00;10.95;;;;;;;;;;5014926;28;20036;-75
2022/06/10 10:15:00;;;;;;;18.48;12.38;;;;;;;;;;5014562;28;20030;-75
2022/06/10 10:17:29;;;;;;;13.95;11.23;;;;;;;;;;5014784;28;20017;-74
2022/06/10 10:20:08;;;;;;;13.32;9.32;;;;;;;;;;5014458;28;20045;-82
2022/06/10 10:22:34;;;;;;;10.63;9.63;;;;;;;;;;5014320;28;20342;-75
2022/06/10 10:25:00;;;;;;;16.88;8.88;;;;;;;;;;5014690;28;20046;-75
2022/06/10 10:27:31;;;;;;;9.70;8.70;;;;;;;;;;5014596;28;20037;-74
2022/06/10 10:30:00;;;;;;;10.52;9.43;;;;;;;;;;5014190;28;20026;-75
2022/06/10 10:32:29;;;;;;;12.82;9.40;;;;;;;;;;5016520;28;20109;-73
2022/06/10 10:35:16;;;;;;;10.18;8.98;;;;;;;;;;5054048;28;20062;-74
2022/06/10 10:37:51;;;;;;;14.38;9.23;;;;;;;;;;5055470;28;20134;-83
2022/06/10 10:40:20;;;;;;;10.40;9.00;;;;;;;;;;5056173;28;20021;-78
2022/06/10 10:42:54;;;;;;;11.68;9.13;;;;;;;;;;5056235;28;20056;-78
2022/06/10 10:45:33;;;;;;;13.15;9.95;;;;;;;;;;5054972;28;20027;-76
2022/06/10 10:48:20;;;;;;;13.50;9.88;;;;;;;;;;5056145;28;20485;-74
2022/06/10 10:50:57;;;;;;;10.85;9.70;;;;;;;;;;5055626;28;20021;-75
2022/06/10 10:53:26;;;;;;;11.77;9.30;;;;;;;;;;5056452;28;20021;-75
2022/06/10 10:55:56;;;;;;;13.13;9.20;;;;;;;;;;5056088;28;20017;-75
2022/06/10 10:58:30;;;;;;;9.65;8.30;;;;;;;;;;5055066;28;20013;-74
2022/06/10 11:01:01;;;;;;;9.25;8.43;;;;;;;;;;5056253;28;20025;-74
2022/06/10 11:03:35;;;;;;;10.43;9.18;;;;;;;;;;5055617;28;20487;-75
2022/06/10 11:06:04;;;;;;;10.70;9.35;;;;;;;;;;5056339;28;20443;-75
2022/06/10 11:08:35;;;;;;;13.38;9.48;;;;;;;;;;5054832;28;20013;-76
2022/06/10 11:11:01;;;;;;;10.03;8.37;;;;;;;;;;5055429;28;20304;-77
2022/06/10 11:13:47;;;;;;;9.95;8.38;;;;;;;;;;5055764;28;20024;-77
2022/06/10 11:16:18;;;;;;;9.65;8.38;;;;;;;;;;5056062;28;20078;-75
2022/06/10 11:18:46;;;;;;;9.85;8.90;;;;;;;;;;5055105;28;20102;-77
2022/06/10 11:21:12;;;;;;;11.65;9.20;;;;;;;;;;5055616;28;20017;-76
2022/06/10 11:23:49;;;;;;;9.88;9.07;;;;;;;;;;5055751;28;20013;-76
2022/06/10 11:26:18;;;;;;;12.00;8.13;;;;;;;;;;5055330;28;20029;-75
2022/06/10 11:28:46;;;;;;;11.18;8.20;;;;;;;;;;5055794;28;20475;-77
2022/06/10 11:31:21;;;;;;;10.70;9.40;;;;;;;;;;5054143;28;20071;-76
2022/06/10 11:33:49;;;;;;;16.27;11.73;;;;;;;;;;5055705;28;20028;-77
2022/06/10 11:36:22;;;;;;;16.02;12.48;;;;;;;;;;5055948;28;20436;-78
2022/06/10 11:38:51;;;;;;;29.50;15.75;;;;;;;;;;5055285;28;20028;-79
2022/06/10 11:41:26;;;;;;;22.23;14.50;;;;;;;;;;5055515;28;20035;-79
2022/06/10 11:43:58;;;;;;;24.77;16.45;;;;;;;;;;5054805;28;20017;-80
2022/06/10 11:46:47;;;;;;;18.35;16.42;;;;;;;;;;5054190;28;20035;-78
2022/06/10 11:49:34;;;;;;;20.88;16.50;;;;;;;;;;5055374;28;20024;-79
2022/06/10 11:52:00;;;;;;;20.08;18.05;;;;;;;;;;5054944;28;20148;-79
2022/06/10 11:54:29;;;;;;;21.30;16.70;;;;;;;;;;5055282;28;20482;-78
2022/06/10 12:00:13;;;;;;;22.90;20.08;;;23.70;99.90;;;;;;5043329;28;20033;-77
2022/06/10 12:02:42;;;;;;;25.02;19.08;;;23.50;99.90;;;;;;5054547;28;20056;-78
2022/06/10 12:05:23;;;;;;;22.63;20.15;;;23.30;99.90;;;;;;5055035;28;20020;-77
2022/06/10 12:08:00;;;;;;;26.05;21.50;;;23.00;99.90;;;;;;5054805;28;20079;-78
2022/06/10 12:10:31;;;;;;;25.60;22.17;;;22.80;99.90;;;;;;5053698;28;20340;-77
2022/06/10 12:12:57;;;;;;;25.63;21.50;;;22.60;99.90;;;;;;5053574;28;20020;-76
2022/06/10 12:15:25;;;;;;;23.38;16.67;;;22.40;99.90;;;;;;5054886;28;20251;-76
2022/06/10 12:18:00;;;;;;;18.30;15.73;;;22.20;99.90;;;;;;5054368;28;20031;-76
2022/06/10 12:20:43;;;;;;;22.15;16.60;;;22.00;99.90;;;;;;5054519;28;20107;-76
2022/06/10 12:23:25;;;;;;;21.40;15.45;;;21.90;99.90;;;;;;5054502;28;20096;-75
2022/06/10 12:26:05;;;;;;;23.20;19.15;;;21.80;99.90;;;;;;5054825;28;20044;-77
2022/06/10 12:28:43;;;;;;;24.35;21.83;;;21.90;99.90;;;;;;5054445;28;20023;-77
2022/06/10 12:31:31;;;;;;;25.30;19.10;;;21.90;99.90;;;;;;5054471;28;20127;-76
2022/06/10 12:34:02;;;;;;;25.00;20.05;;;21.90;99.90;;;;;;5052977;28;20032;-76
2022/06/10 12:36:41;;;;;;;23.05;20.60;;;21.90;99.90;;;;;;5053888;28;20031;-77
2022/06/10 12:39:45;;;;;;;24.85;22.00;;;21.80;99.90;;;;;;5053704;28;20079;-76
2022/06/10 12:42:20;;;;;;;25.95;18.55;;;21.80;99.90;;;;;;5030831;28;20029;-76
2022/06/10 12:44:52;;;;;;;17.95;13.77;;;21.80;99.90;;;;;;5031597;28;20073;-76
2022/06/10 12:47:26;;;;;;;13.10;11.77;;;21.80;99.90;;;;;;5031362;28;20025;-76
2022/06/10 12:50:01;;;;;;;12.57;11.32;;;22.00;99.90;;;;;;5031058;28;20022;-78
2022/06/10 12:53:11;;;;;;;10.10;8.93;;;22.50;99.90;;;;;;5031255;28;20036;-78
2022/06/10 12:55:52;;;;;;;9.85;7.40;;;22.90;99.90;;;;;;5014018;28;20029;-78
2022/06/10 12:58:39;;;;;;;9.63;7.93;;;22.90;99.90;;;;;;5031242;28;20029;-75
2022/06/10 13:01:27;;;;;;;8.55;6.97;;;22.90;99.90;;;;;;5031268;28;20030;-75
2022/06/10 13:03:56;;;;;;;9.43;8.50;;;22.70;99.90;;;;;;5030581;28;20044;-75
2022/06/10 13:06:49;;;;;;;9.75;8.73;;;22.60;99.90;;;;;;5031085;28;20049;-76
2022/06/10 13:09:26;;;;;;;11.35;9.63;;;22.50;99.90;;;;;;5030805;28;20029;-76
2022/06/10 13:12:00;;;;;;;10.32;9.32;;;22.60;99.90;;;;;;5030245;28;20033;-76
2022/06/10 13:14:27;;;;;;;10.27;9.32;;;22.70;99.90;;;;;;5031283;28;20033;-77
2022/06/10 13:16:59;;;;;;;11.00;9.02;;;22.80;99.90;;;;;;5034472;28;20040;-76
2022/06/10 13:20:03;;;;;;;11.35;8.05;;;22.70;99.90;;;;;;5053244;28;20045;-78
2022/06/10 13:22:38;;;;;;;7.82;7.05;;;23.20;99.90;;;;;;5053352;28;20486;-79
2022/06/10 13:25:07;;;;;;;13.38;7.38;;;23.10;99.90;;;;;;5052773;28;20017;-77
2022/06/10 13:27:39;;;;;;;8.82;7.93;;;23.00;99.90;;;;;;5053054;28;20021;-78
2022/06/10 13:30:16;;;;;;;;;;;22.80;99.90;;;;;;5052716;28;20451;-79
2022/06/10 13:32:46;;;;;;;18.55;14.60;;;22.70;99.90;;;;;;5053063;28;19904;-78
2022/06/10 13:35:24;;;;;;;18.35;9.80;;;22.40;99.90;;;;;;5051525;28;20572;-80
2022/06/10 13:37:58;;;;;;;18.65;9.13;;;22.30;99.90;;;;;;5051246;28;20443;-79
2022/06/10 13:40:27;;;;;;;14.55;7.85;;;22.00;99.90;;;;;;5052809;28;20031;-79
2022/06/10 13:42:59;;;;;;;15.68;8.15;;;21.70;99.90;;;;;;5052840;28;20032;-76